Olympic Champion — SYWD — position and weather

sailwx.info

Track history (hours):
 
Tides and Currents Weather Stations Pressure Air Temp Water Temp Dewpoint Dewpoint Depression Visibility Wind Speed Wind Dir Waves Ship Positions

Olympic Champion

Last reported at 2018-Jan-21 09:59 UTC. Time now 2018-Jan-21 10:09 UTC.
Position N 45°25' E 012°15'.

Length 204 m; draft 6.4 m.

Type: Ship. MMSI: 237280000.

Date/timePositionNaut miles runAvg speedWind from/ knotsBaromVisibWave heightAir tempDewpointWater temp
2018-Jan-21 09:59N 45°25' E 012°15'0 0.0
2018-Jan-21 09:29N 45°25' E 012°15'0 0.0
2018-Jan-21 08:59N 45°25' E 012°15'0 0.0
2018-Jan-21 08:29N 45°25' E 012°15'0 0.0
2018-Jan-21 07:59N 45°25' E 012°15'0 0.0
2018-Jan-21 07:29N 45°25' E 012°15'0 0.0
2018-Jan-21 07:00N 45°25' E 012°15'0 0.0
2018-Jan-21 06:30N 45°25' E 012°15'0 0.9
2018-Jan-21 06:00N 45°25' E 012°16'4 8.7
2018-Jan-21 05:30N 45°21' E 012°17'5 9.8
2018-Jan-21 05:00N 45°19' E 012°23'816.6
2018-Jan-21 04:30N 45°16' E 012°34'1019.5
2018-Jan-21 04:01N 45°10' E 012°45'1019.7
2018-Jan-21 03:30N 45°05' E 012°57'1019.7
2018-Jan-21 03:01N 45°01' E 013°09'1019.6
2018-Jan-21 02:30N 44°56' E 013°21'1019.5
2018-Jan-21 02:00N 44°48' E 013°30'1020.5
2018-Jan-21 01:30N 44°39' E 013°38'1020.5
2018-Jan-21 01:00N 44°31' E 013°45'1020.8
2018-Jan-21 00:30N 44°22' E 013°54'  
Track history (hours):
 
Tides and Currents Weather Stations Pressure Air Temp Water Temp Dewpoint Dewpoint Depression Visibility Wind Speed Wind Dir Waves Ship Positions

Olympic Champion

Last reported at 2018-Jan-21 09:59 UTC. Time now 2018-Jan-21 10:09 UTC.
Position N 45°25' E 012°15'.

Length 204 m; draft 6.4 m.

Type: Ship. MMSI: 237280000.

Date/timePositionNaut miles runAvg speedWind from/ knotsBaromVisibWave heightAir tempDewpointWater temp
2018-Jan-21 09:59N 45°25' E 012°15'0 0.0
2018-Jan-21 09:29N 45°25' E 012°15'0 0.0
2018-Jan-21 08:59N 45°25' E 012°15'0 0.0
2018-Jan-21 08:29N 45°25' E 012°15'0 0.0
2018-Jan-21 07:59N 45°25' E 012°15'0 0.0
2018-Jan-21 07:29N 45°25' E 012°15'0 0.0
2018-Jan-21 07:00N 45°25' E 012°15'0 0.0
2018-Jan-21 06:30N 45°25' E 012°15'0 0.9
2018-Jan-21 06:00N 45°25' E 012°16'4 8.7
2018-Jan-21 05:30N 45°21' E 012°17'5 9.8
2018-Jan-21 05:00N 45°19' E 012°23'816.6
2018-Jan-21 04:30N 45°16' E 012°34'1019.5
2018-Jan-21 04:01N 45°10' E 012°45'1019.7
2018-Jan-21 03:30N 45°05' E 012°57'1019.7
2018-Jan-21 03:01N 45°01' E 013°09'1019.6
2018-Jan-21 02:30N 44°56' E 013°21'1019.5
2018-Jan-21 02:00N 44°48' E 013°30'1020.5
2018-Jan-21 01:30N 44°39' E 013°38'1020.5
2018-Jan-21 01:00N 44°31' E 013°45'1020.8
2018-Jan-21 00:30N 44°22' E 013°54'  

Dump ship's entire track history